sensor_id;sensor_type;location;lat;lon;timestamp;P1;durP1;ratioP1;P2;durP2;ratioP2
11655;SDS011;5884;43.618;1.438;2022-12-07T05:45:45;40.90;;;28.40;;
11655;SDS011;5884;43.618;1.438;2022-12-07T05:48:12;38.03;;;27.50;;
11655;SDS011;5884;43.618;1.438;2022-12-07T05:50:39;37.13;;;27.10;;
11655;SDS011;5884;43.618;1.438;2022-12-07T05:53:07;41.37;;;27.70;;
11655;SDS011;5884;43.618;1.438;2022-12-07T05:55:34;36.93;;;27.37;;
11655;SDS011;5884;43.618;1.438;2022-12-07T05:58:01;34.90;;;27.63;;
11655;SDS011;5884;43.618;1.438;2022-12-07T06:00:47;37.87;;;27.23;;
11655;SDS011;5884;43.618;1.438;2022-12-07T06:03:15;39.37;;;26.50;;
11655;SDS011;5884;43.618;1.438;2022-12-07T06:05:42;34.80;;;26.17;;
11655;SDS011;5884;43.618;1.438;2022-12-07T06:08:09;40.13;;;26.47;;
11655;SDS011;5884;43.618;1.438;2022-12-07T06:10:37;37.40;;;26.30;;
11655;SDS011;5884;43.618;1.438;2022-12-07T06:13:04;36.70;;;26.90;;
11655;SDS011;5884;43.618;1.438;2022-12-07T06:15:30;38.67;;;26.73;;
11655;SDS011;5884;43.618;1.438;2022-12-07T06:17:59;34.67;;;25.73;;
11655;SDS011;5884;43.618;1.438;2022-12-07T06:20:26;35.93;;;26.67;;
11655;SDS011;5884;43.618;1.438;2022-12-07T06:22:54;36.13;;;26.13;;
11655;SDS011;5884;43.618;1.438;2022-12-07T06:25:21;35.10;;;25.83;;
11655;SDS011;5884;43.618;1.438;2022-12-07T06:27:48;36.40;;;26.57;;
11655;SDS011;5884;43.618;1.438;2022-12-07T06:30:15;36.07;;;26.23;;
11655;SDS011;5884;43.618;1.438;2022-12-07T06:32:43;35.07;;;25.60;;
11655;SDS011;5884;43.618;1.438;2022-12-07T06:35:11;34.50;;;25.57;;
11655;SDS011;5884;43.618;1.438;2022-12-07T06:37:39;34.50;;;25.63;;
11655;SDS011;5884;43.618;1.438;2022-12-07T06:40:06;35.80;;;25.07;;
11655;SDS011;5884;43.618;1.438;2022-12-07T06:42:35;32.27;;;24.70;;
11655;SDS011;5884;43.618;1.438;2022-12-07T06:45:03;32.07;;;24.40;;
11655;SDS011;5884;43.618;1.438;2022-12-07T06:47:31;37.00;;;25.70;;
11655;SDS011;5884;43.618;1.438;2022-12-07T06:49:58;35.13;;;25.93;;
11655;SDS011;5884;43.618;1.438;2022-12-07T06:52:27;38.10;;;27.00;;
11655;SDS011;5884;43.618;1.438;2022-12-07T06:54:54;35.67;;;26.60;;
11655;SDS011;5884;43.618;1.438;2022-12-07T06:57:21;37.10;;;25.93;;
11655;SDS011;5884;43.618;1.438;2022-12-07T06:59:48;36.30;;;26.10;;
11655;SDS011;5884;43.618;1.438;2022-12-07T07:02:16;36.97;;;26.33;;
11655;SDS011;5884;43.618;1.438;2022-12-07T07:04:43;35.33;;;25.87;;
11655;SDS011;5884;43.618;1.438;2022-12-07T07:07:10;35.57;;;26.40;;
11655;SDS011;5884;43.618;1.438;2022-12-07T07:09:39;40.17;;;26.47;;
11655;SDS011;5884;43.618;1.438;2022-12-07T07:12:07;37.97;;;28.03;;
11655;SDS011;5884;43.618;1.438;2022-12-07T07:14:34;40.97;;;30.13;;
11655;SDS011;5884;43.618;1.438;2022-12-07T07:17:01;44.63;;;31.13;;
11655;SDS011;5884;43.618;1.438;2022-12-07T07:19:29;40.33;;;29.80;;
11655;SDS011;5884;43.618;1.438;2022-12-07T07:21:56;41.83;;;31.73;;
11655;SDS011;5884;43.618;1.438;2022-12-07T07:24:23;47.37;;;33.57;;
11655;SDS011;5884;43.618;1.438;2022-12-07T07:26:52;45.30;;;31.87;;
11655;SDS011;5884;43.618;1.438;2022-12-07T07:29:19;46.47;;;32.23;;
11655;SDS011;5884;43.618;1.438;2022-12-07T07:31:47;40.20;;;30.83;;
11655;SDS011;5884;43.618;1.438;2022-12-07T07:34:14;43.93;;;32.77;;
11655;SDS011;5884;43.618;1.438;2022-12-07T07:36:42;43.03;;;30.20;;
11655;SDS011;5884;43.618;1.438;2022-12-07T07:39:09;44.93;;;30.63;;
11655;SDS011;5884;43.618;1.438;2022-12-07T07:41:37;41.80;;;31.00;;
11655;SDS011;5884;43.618;1.438;2022-12-07T07:44:06;47.10;;;30.80;;
11655;SDS011;5884;43.618;1.438;2022-12-07T07:46:33;44.23;;;31.47;;
11655;SDS011;5884;43.618;1.438;2022-12-07T07:49:00;41.50;;;30.43;;
11655;SDS011;5884;43.618;1.438;2022-12-07T07:51:28;42.93;;;30.17;;
11655;SDS011;5884;43.618;1.438;2022-12-07T07:53:55;41.93;;;29.73;;
11655;SDS011;5884;43.618;1.438;2022-12-07T07:56:22;45.47;;;30.27;;
11655;SDS011;5884;43.618;1.438;2022-12-07T07:58:51;41.50;;;31.13;;
11655;SDS011;5884;43.618;1.438;2022-12-07T08:01:20;44.77;;;32.63;;
11655;SDS011;5884;43.618;1.438;2022-12-07T08:03:47;47.77;;;32.23;;
11655;SDS011;5884;43.618;1.438;2022-12-07T08:06:14;49.90;;;31.73;;
11655;SDS011;5884;43.618;1.438;2022-12-07T08:08:42;48.50;;;32.53;;
11655;SDS011;5884;43.618;1.438;2022-12-07T08:11:09;53.33;;;31.73;;
11655;SDS011;5884;43.618;1.438;2022-12-07T08:13:37;46.53;;;31.63;;
11655;SDS011;5884;43.618;1.438;2022-12-07T08:16:05;51.37;;;32.80;;
11655;SDS011;5884;43.618;1.438;2022-12-07T08:18:36;48.17;;;32.93;;
11655;SDS011;5884;43.618;1.438;2022-12-07T08:21:04;42.87;;;30.37;;
11655;SDS011;5884;43.618;1.438;2022-12-07T08:23:33;49.77;;;32.60;;
11655;SDS011;5884;43.618;1.438;2022-12-07T08:26:00;46.23;;;31.30;;
11655;SDS011;5884;43.618;1.438;2022-12-07T08:28:28;49.43;;;32.90;;
11655;SDS011;5884;43.618;1.438;2022-12-07T08:30:58;42.27;;;31.43;;
11655;SDS011;5884;43.618;1.438;2022-12-07T08:33:26;53.03;;;33.33;;
11655;SDS011;5884;43.618;1.438;2022-12-07T08:35:55;41.93;;;28.97;;
11655;SDS011;5884;43.618;1.438;2022-12-07T08:38:27;40.33;;;28.67;;
11655;SDS011;5884;43.618;1.438;2022-12-07T08:40:54;35.60;;;25.37;;
11655;SDS011;5884;43.618;1.438;2022-12-07T08:43:22;39.43;;;26.47;;
11655;SDS011;5884;43.618;1.438;2022-12-07T08:45:51;43.27;;;28.07;;
11655;SDS011;5884;43.618;1.438;2022-12-07T08:48:30;39.63;;;28.03;;
11655;SDS011;5884;43.618;1.438;2022-12-07T08:50:59;35.80;;;24.93;;
11655;SDS011;5884;43.618;1.438;2022-12-07T08:53:28;41.67;;;27.37;;
11655;SDS011;5884;43.618;1.438;2022-12-07T08:55:57;39.67;;;28.30;;
11655;SDS011;5884;43.618;1.438;2022-12-07T08:58:24;38.70;;;27.70;;
11655;SDS011;5884;43.618;1.438;2022-12-07T09:00:52;39.47;;;26.90;;
11655;SDS011;5884;43.618;1.438;2022-12-07T09:03:19;38.10;;;24.87;;
11655;SDS011;5884;43.618;1.438;2022-12-07T09:05:46;38.43;;;24.23;;
11655;SDS011;5884;43.618;1.438;2022-12-07T09:08:15;30.50;;;21.47;;
11655;SDS011;5884;43.618;1.438;2022-12-07T09:10:43;30.50;;;20.83;;
11655;SDS011;5884;43.618;1.438;2022-12-07T09:13:10;29.33;;;19.10;;
11655;SDS011;5884;43.618;1.438;2022-12-07T09:15:37;24.53;;;16.70;;
11655;SDS011;5884;43.618;1.438;2022-12-07T09:18:05;19.80;;;15.73;;
11655;SDS011;5884;43.618;1.438;2022-12-07T09:20:32;22.67;;;16.70;;
11655;SDS011;5884;43.618;1.438;2022-12-07T09:23:00;22.80;;;17.70;;
11655;SDS011;5884;43.618;1.438;2022-12-07T09:25:28;22.47;;;16.23;;
11655;SDS011;5884;43.618;1.438;2022-12-07T09:27:56;24.73;;;18.07;;
11655;SDS011;5884;43.618;1.438;2022-12-07T09:30:24;23.93;;;17.57;;
11655;SDS011;5884;43.618;1.438;2022-12-07T09:32:52;23.70;;;17.40;;
11655;SDS011;5884;43.618;1.438;2022-12-07T09:35:20;21.87;;;17.57;;
11655;SDS011;5884;43.618;1.438;2022-12-07T09:37:47;26.67;;;18.40;;
11655;SDS011;5884;43.618;1.438;2022-12-07T09:40:15;20.27;;;16.80;;
11655;SDS011;5884;43.618;1.438;2022-12-07T09:42:49;22.60;;;17.60;;
11655;SDS011;5884;43.618;1.438;2022-12-07T09:45:21;22.97;;;17.57;;
11655;SDS011;5884;43.618;1.438;2022-12-07T09:47:51;25.67;;;17.63;;
11655;SDS011;5884;43.618;1.438;2022-12-07T09:50:19;23.83;;;18.10;;
11655;SDS011;5884;43.618;1.438;2022-12-07T09:52:50;22.83;;;17.40;;
11655;SDS011;5884;43.618;1.438;2022-12-07T09:55:19;24.30;;;16.93;;
11655;SDS011;5884;43.618;1.438;2022-12-07T09:57:52;22.50;;;17.87;;
11655;SDS011;5884;43.618;1.438;2022-12-07T10:00:21;24.80;;;19.07;;
11655;SDS011;5884;43.618;1.438;2022-12-07T10:02:52;26.63;;;19.47;;
11655;SDS011;5884;43.618;1.438;2022-12-07T10:05:24;27.73;;;20.03;;
11655;SDS011;5884;43.618;1.438;2022-12-07T10:07:55;26.93;;;20.27;;
11655;SDS011;5884;43.618;1.438;2022-12-07T10:10:23;25.50;;;18.83;;
11655;SDS011;5884;43.618;1.438;2022-12-07T10:12:58;23.00;;;18.20;;
11655;SDS011;5884;43.618;1.438;2022-12-07T10:15:44;29.00;;;19.73;;
11655;SDS011;5884;43.618;1.438;2022-12-07T10:18:25;27.87;;;19.37;;
11655;SDS011;5884;43.618;1.438;2022-12-07T10:21:12;21.03;;;15.77;;
11655;SDS011;5884;43.618;1.438;2022-12-07T10:23:42;23.33;;;17.20;;
11655;SDS011;5884;43.618;1.438;2022-12-07T10:26:28;23.80;;;16.63;;
11655;SDS011;5884;43.618;1.438;2022-12-07T10:29:00;25.27;;;18.83;;
11655;SDS011;5884;43.618;1.438;2022-12-07T10:31:39;24.23;;;17.37;;
11655;SDS011;5884;43.618;1.438;2022-12-07T10:34:13;21.27;;;16.30;;
11655;SDS011;5884;43.618;1.438;2022-12-07T10:36:49;27.73;;;17.40;;
11655;SDS011;5884;43.618;1.438;2022-12-07T10:39:18;23.67;;;17.20;;
11655;SDS011;5884;43.618;1.438;2022-12-07T10:41:53;23.03;;;17.10;;
11655;SDS011;5884;43.618;1.438;2022-12-07T10:44:25;24.07;;;16.47;;
11655;SDS011;5884;43.618;1.438;2022-12-07T10:46:57;21.97;;;15.93;;
11655;SDS011;5884;43.618;1.438;2022-12-07T10:49:48;20.93;;;15.60;;
11655;SDS011;5884;43.618;1.438;2022-12-07T10:53:13;17.63;;;13.00;;
11655;SDS011;5884;43.618;1.438;2022-12-07T10:56:34;15.00;;;12.00;;
11655;SDS011;5884;43.618;1.438;2022-12-07T11:02:39;13.87;;;10.27;;
11655;SDS011;5884;43.618;1.438;2022-12-07T11:05:25;11.87;;;9.60;;
11655;SDS011;5884;43.618;1.438;2022-12-07T11:08:03;12.40;;;9.30;;
11655;SDS011;5884;43.618;1.438;2022-12-07T11:10:45;16.40;;;11.63;;
11655;SDS011;5884;43.618;1.438;2022-12-07T11:13:28;17.10;;;11.63;;
11655;SDS011;5884;43.618;1.438;2022-12-07T11:19:06;17.80;;;11.80;;
11655;SDS011;5884;43.618;1.438;2022-12-07T11:22:09;18.57;;;12.50;;
11655;SDS011;5884;43.618;1.438;2022-12-07T11:24:44;17.53;;;12.83;;
11655;SDS011;5884;43.618;1.438;2022-12-07T11:27:23;20.13;;;13.37;;
11655;SDS011;5884;43.618;1.438;2022-12-07T11:30:13;22.33;;;13.70;;
11655;SDS011;5884;43.618;1.438;2022-12-07T11:35:46;19.77;;;13.00;;
11655;SDS011;5884;43.618;1.438;2022-12-07T11:38:24;19.00;;;11.10;;
11655;SDS011;5884;43.618;1.438;2022-12-07T11:41:08;14.53;;;10.63;;
11655;SDS011;5884;43.618;1.438;2022-12-07T11:43:42;14.03;;;9.30;;
11655;SDS011;5884;43.618;1.438;2022-12-07T11:46:24;16.43;;;10.17;;
11655;SDS011;5884;43.618;1.438;2022-12-07T11:48:58;25.43;;;15.43;;
11655;SDS011;5884;43.618;1.438;2022-12-07T11:51:35;14.17;;;9.90;;
11655;SDS011;5884;43.618;1.438;2022-12-07T11:54:05;13.77;;;8.03;;
11655;SDS011;5884;43.618;1.438;2022-12-07T11:56:44;11.23;;;7.23;;
11655;SDS011;5884;43.618;1.438;2022-12-07T11:59:17;11.93;;;6.40;;
11655;SDS011;5884;43.618;1.438;2022-12-07T12:01:52;8.27;;;6.83;;
11655;SDS011;5884;43.618;1.438;2022-12-07T12:04:27;11.17;;;7.70;;
11655;SDS011;5884;43.618;1.438;2022-12-07T12:07:05;14.43;;;9.53;;
11655;SDS011;5884;43.618;1.438;2022-12-07T12:09:34;11.30;;;9.23;;
11655;SDS011;5884;43.618;1.438;2022-12-07T12:12:30;11.03;;;8.90;;
11655;SDS011;5884;43.618;1.438;2022-12-07T12:15:18;13.27;;;9.57;;
11655;SDS011;5884;43.618;1.438;2022-12-07T12:21:08;14.43;;;9.93;;
11655;SDS011;5884;43.618;1.438;2022-12-07T12:23:40;13.73;;;9.33;;
11655;SDS011;5884;43.618;1.438;2022-12-07T12:26:14;13.90;;;9.40;;
11655;SDS011;5884;43.618;1.438;2022-12-07T12:28:49;12.13;;;9.03;;
11655;SDS011;5884;43.618;1.438;2022-12-07T12:31:31;13.27;;;9.43;;
11655;SDS011;5884;43.618;1.438;2022-12-07T12:34:10;12.50;;;8.83;;
11655;SDS011;5884;43.618;1.438;2022-12-07T12:37:17;9.80;;;7.83;;
11655;SDS011;5884;43.618;1.438;2022-12-07T12:40:41;11.57;;;9.03;;
11655;SDS011;5884;43.618;1.438;2022-12-07T12:52:58;12.13;;;9.47;;
11655;SDS011;5884;43.618;1.438;2022-12-07T13:01:53;9.10;;;7.60;;
11655;SDS011;5884;43.618;1.438;2022-12-07T13:04:29;11.70;;;7.70;;
11655;SDS011;5884;43.618;1.438;2022-12-07T13:10:33;11.93;;;7.63;;
11655;SDS011;5884;43.618;1.438;2022-12-07T13:13:32;12.23;;;9.30;;
11655;SDS011;5884;43.618;1.438;2022-12-07T13:25:29;9.40;;;6.63;;
11655;SDS011;5884;43.618;1.438;2022-12-07T13:28:07;9.77;;;6.53;;
11655;SDS011;5884;43.618;1.438;2022-12-07T13:30:46;7.67;;;6.20;;
11655;SDS011;5884;43.618;1.438;2022-12-07T13:33:27;8.40;;;5.93;;
11655;SDS011;5884;43.618;1.438;2022-12-07T13:35:56;7.70;;;6.10;;
11655;SDS011;5884;43.618;1.438;2022-12-07T13:38:26;8.80;;;6.33;;
11655;SDS011;5884;43.618;1.438;2022-12-07T13:41:01;7.13;;;5.70;;
11655;SDS011;5884;43.618;1.438;2022-12-07T13:43:42;8.30;;;6.10;;
11655;SDS011;5884;43.618;1.438;2022-12-07T13:46:15;8.40;;;6.20;;
11655;SDS011;5884;43.618;1.438;2022-12-07T13:48:47;10.27;;;6.40;;
11655;SDS011;5884;43.618;1.438;2022-12-07T13:51:17;9.03;;;6.20;;
11655;SDS011;5884;43.618;1.438;2022-12-07T13:53:48;8.33;;;6.53;;
11655;SDS011;5884;43.618;1.438;2022-12-07T13:56:20;9.63;;;6.80;;
11655;SDS011;5884;43.618;1.438;2022-12-07T13:59:00;13.10;;;7.00;;
11655;SDS011;5884;43.618;1.438;2022-12-07T14:01:28;10.60;;;7.13;;
11655;SDS011;5884;43.618;1.438;2022-12-07T14:06:58;13.97;;;7.57;;
11655;SDS011;5884;43.618;1.438;2022-12-07T14:09:27;11.07;;;8.07;;
11655;SDS011;5884;43.618;1.438;2022-12-07T14:11:57;12.57;;;9.63;;
11655;SDS011;5884;43.618;1.438;2022-12-07T14:14:25;11.13;;;8.87;;
11655;SDS011;5884;43.618;1.438;2022-12-07T14:16:56;12.90;;;9.40;;
11655;SDS011;5884;43.618;1.438;2022-12-07T14:22:24;15.87;;;9.57;;
11655;SDS011;5884;43.618;1.438;2022-12-07T14:25:01;11.67;;;9.60;;
11655;SDS011;5884;43.618;1.438;2022-12-07T14:27:50;11.90;;;8.67;;
11655;SDS011;5884;43.618;1.438;2022-12-07T14:30:22;13.87;;;9.40;;
11655;SDS011;5884;43.618;1.438;2022-12-07T14:32:53;12.47;;;8.87;;
11655;SDS011;5884;43.618;1.438;2022-12-07T14:35:24;12.87;;;8.47;;
11655;SDS011;5884;43.618;1.438;2022-12-07T14:37:51;20.37;;;10.60;;
11655;SDS011;5884;43.618;1.438;2022-12-07T14:40:19;11.60;;;9.40;;
11655;SDS011;5884;43.618;1.438;2022-12-07T14:42:51;14.30;;;10.37;;
11655;SDS011;5884;43.618;1.438;2022-12-07T14:45:22;10.90;;;8.77;;
11655;SDS011;5884;43.618;1.438;2022-12-07T14:47:50;12.53;;;8.40;;
11655;SDS011;5884;43.618;1.438;2022-12-07T14:50:18;14.13;;;9.87;;
11655;SDS011;5884;43.618;1.438;2022-12-07T14:52:48;9.57;;;7.47;;
11655;SDS011;5884;43.618;1.438;2022-12-07T14:55:21;9.67;;;6.43;;
11655;SDS011;5884;43.618;1.438;2022-12-07T14:57:54;9.17;;;7.00;;
11655;SDS011;5884;43.618;1.438;2022-12-07T15:00:22;9.40;;;7.03;;
11655;SDS011;5884;43.618;1.438;2022-12-07T15:02:52;10.17;;;7.03;;
11655;SDS011;5884;43.618;1.438;2022-12-07T15:05:19;10.90;;;7.23;;
11655;SDS011;5884;43.618;1.438;2022-12-07T15:07:48;11.57;;;7.90;;
11655;SDS011;5884;43.618;1.438;2022-12-07T15:10:16;13.03;;;9.33;;
11655;SDS011;5884;43.618;1.438;2022-12-07T15:12:46;12.47;;;7.97;;
11655;SDS011;5884;43.618;1.438;2022-12-07T15:15:15;11.70;;;7.10;;
11655;SDS011;5884;43.618;1.438;2022-12-07T15:17:43;10.00;;;7.00;;
11655;SDS011;5884;43.618;1.438;2022-12-07T15:20:11;11.53;;;7.43;;
11655;SDS011;5884;43.618;1.438;2022-12-07T15:22:41;9.63;;;7.40;;
11655;SDS011;5884;43.618;1.438;2022-12-07T15:25:12;12.93;;;8.30;;
11655;SDS011;5884;43.618;1.438;2022-12-07T15:27:40;11.93;;;8.00;;
11655;SDS011;5884;43.618;1.438;2022-12-07T15:30:08;12.63;;;8.27;;
11655;SDS011;5884;43.618;1.438;2022-12-07T15:32:37;10.30;;;7.40;;
11655;SDS011;5884;43.618;1.438;2022-12-07T15:35:04;10.97;;;7.80;;
11655;SDS011;5884;43.618;1.438;2022-12-07T15:37:32;11.87;;;7.57;;
11655;SDS011;5884;43.618;1.438;2022-12-07T15:40:00;13.77;;;7.97;;
11655;SDS011;5884;43.618;1.438;2022-12-07T15:42:27;14.60;;;8.30;;
11655;SDS011;5884;43.618;1.438;2022-12-07T15:44:54;13.30;;;9.50;;
11655;SDS011;5884;43.618;1.438;2022-12-07T15:47:30;13.07;;;9.10;;
11655;SDS011;5884;43.618;1.438;2022-12-07T15:49:59;11.13;;;8.83;;
11655;SDS011;5884;43.618;1.438;2022-12-07T15:52:26;15.93;;;9.80;;
11655;SDS011;5884;43.618;1.438;2022-12-07T15:54:54;13.23;;;9.40;;
11655;SDS011;5884;43.618;1.438;2022-12-07T15:57:21;14.67;;;11.13;;
11655;SDS011;5884;43.618;1.438;2022-12-07T15:59:49;13.73;;;9.60;;
11655;SDS011;5884;43.618;1.438;2022-12-07T16:02:16;13.70;;;9.87;;
11655;SDS011;5884;43.618;1.438;2022-12-07T16:04:43;11.47;;;9.20;;
11655;SDS011;5884;43.618;1.438;2022-12-07T16:07:12;12.83;;;8.17;;
11655;SDS011;5884;43.618;1.438;2022-12-07T16:09:40;12.43;;;8.63;;
11655;SDS011;5884;43.618;1.438;2022-12-07T16:12:08;13.27;;;8.20;;
11655;SDS011;5884;43.618;1.438;2022-12-07T16:14:36;12.67;;;8.10;;
11655;SDS011;5884;43.618;1.438;2022-12-07T16:17:04;12.87;;;9.40;;
11655;SDS011;5884;43.618;1.438;2022-12-07T16:19:32;12.37;;;9.23;;
11655;SDS011;5884;43.618;1.438;2022-12-07T16:22:00;12.47;;;9.23;;
11655;SDS011;5884;43.618;1.438;2022-12-07T16:24:28;14.23;;;9.63;;
11655;SDS011;5884;43.618;1.438;2022-12-07T16:26:56;13.03;;;9.00;;
11655;SDS011;5884;43.618;1.438;2022-12-07T16:29:24;10.60;;;8.40;;
11655;SDS011;5884;43.618;1.438;2022-12-07T16:31:51;13.70;;;9.30;;
11655;SDS011;5884;43.618;1.438;2022-12-07T16:34:18;10.73;;;9.00;;
11655;SDS011;5884;43.618;1.438;2022-12-07T16:36:46;13.43;;;8.93;;
11655;SDS011;5884;43.618;1.438;2022-12-07T16:39:13;11.70;;;9.20;;
11655;SDS011;5884;43.618;1.438;2022-12-07T16:41:42;11.50;;;9.47;;
11655;SDS011;5884;43.618;1.438;2022-12-07T16:44:10;13.77;;;9.63;;
11655;SDS011;5884;43.618;1.438;2022-12-07T16:46:38;12.73;;;10.00;;
11655;SDS011;5884;43.618;1.438;2022-12-07T16:49:06;13.83;;;9.93;;
11655;SDS011;5884;43.618;1.438;2022-12-07T16:51:37;13.17;;;10.33;;
11655;SDS011;5884;43.618;1.438;2022-12-07T16:54:06;13.67;;;10.20;;
11655;SDS011;5884;43.618;1.438;2022-12-07T16:56:35;14.30;;;9.60;;
11655;SDS011;5884;43.618;1.438;2022-12-07T16:59:04;12.63;;;9.50;;
11655;SDS011;5884;43.618;1.438;2022-12-07T17:01:31;16.17;;;10.70;;
11655;SDS011;5884;43.618;1.438;2022-12-07T17:03:59;14.83;;;10.90;;
11655;SDS011;5884;43.618;1.438;2022-12-07T17:06:28;14.23;;;11.20;;
11655;SDS011;5884;43.618;1.438;2022-12-07T17:08:56;15.90;;;12.17;;
11655;SDS011;5884;43.618;1.438;2022-12-07T17:11:24;17.37;;;11.60;;
11655;SDS011;5884;43.618;1.438;2022-12-07T17:13:53;18.03;;;12.67;;
11655;SDS011;5884;43.618;1.438;2022-12-07T17:16:40;16.90;;;12.73;;
11655;SDS011;5884;43.618;1.438;2022-12-07T17:19:08;20.13;;;13.40;;
11655;SDS011;5884;43.618;1.438;2022-12-07T17:21:37;18.40;;;13.67;;
11655;SDS011;5884;43.618;1.438;2022-12-07T17:24:06;20.97;;;13.70;;
11655;SDS011;5884;43.618;1.438;2022-12-07T17:26:36;22.50;;;15.30;;
11655;SDS011;5884;43.618;1.438;2022-12-07T17:29:05;24.50;;;16.13;;
11655;SDS011;5884;43.618;1.438;2022-12-07T17:31:33;20.43;;;15.90;;
11655;SDS011;5884;43.618;1.438;2022-12-07T17:34:03;22.60;;;15.87;;
11655;SDS011;5884;43.618;1.438;2022-12-07T17:36:31;27.37;;;16.37;;
11655;SDS011;5884;43.618;1.438;2022-12-07T17:38:58;24.67;;;16.87;;
11655;SDS011;5884;43.618;1.438;2022-12-07T17:41:28;27.50;;;17.30;;
11655;SDS011;5884;43.618;1.438;2022-12-07T17:44:13;22.47;;;16.90;;
11655;SDS011;5884;43.618;1.438;2022-12-07T17:46:43;26.17;;;16.83;;
11655;SDS011;5884;43.618;1.438;2022-12-07T17:49:12;25.90;;;17.03;;
11655;SDS011;5884;43.618;1.438;2022-12-07T17:51:40;27.17;;;16.90;;
11655;SDS011;5884;43.618;1.438;2022-12-07T17:54:26;27.53;;;18.23;;
11655;SDS011;5884;43.618;1.438;2022-12-07T17:56:54;23.77;;;17.50;;
11655;SDS011;5884;43.618;1.438;2022-12-07T17:59:22;27.20;;;17.57;;
11655;SDS011;5884;43.618;1.438;2022-12-07T18:01:49;29.80;;;18.13;;
11655;SDS011;5884;43.618;1.438;2022-12-07T18:04:18;25.43;;;17.30;;
11655;SDS011;5884;43.618;1.438;2022-12-07T18:06:45;26.30;;;17.73;;
11655;SDS011;5884;43.618;1.438;2022-12-07T18:09:13;28.30;;;17.47;;
11655;SDS011;5884;43.618;1.438;2022-12-07T18:11:40;27.97;;;18.63;;
11655;SDS011;5884;43.618;1.438;2022-12-07T18:14:07;26.90;;;18.03;;
11655;SDS011;5884;43.618;1.438;2022-12-07T18:16:35;27.40;;;18.63;;
11655;SDS011;5884;43.618;1.438;2022-12-07T18:19:03;30.63;;;20.80;;
11655;SDS011;5884;43.618;1.438;2022-12-07T18:21:34;34.40;;;21.83;;
11655;SDS011;5884;43.618;1.438;2022-12-07T18:24:02;36.57;;;23.70;;
11655;SDS011;5884;43.618;1.438;2022-12-07T18:26:31;37.97;;;23.77;;
11655;SDS011;5884;43.618;1.438;2022-12-07T18:29:01;37.57;;;24.77;;
11655;SDS011;5884;43.618;1.438;2022-12-07T18:31:30;41.00;;;25.23;;
11655;SDS011;5884;43.618;1.438;2022-12-07T18:33:59;42.13;;;28.20;;
11655;SDS011;5884;43.618;1.438;2022-12-07T18:36:28;38.00;;;26.80;;
11655;SDS011;5884;43.618;1.438;2022-12-07T18:38:58;45.93;;;32.73;;
11655;SDS011;5884;43.618;1.438;2022-12-07T18:41:25;52.57;;;32.60;;
11655;SDS011;5884;43.618;1.438;2022-12-07T18:43:52;49.73;;;29.83;;
11655;SDS011;5884;43.618;1.438;2022-12-07T18:46:20;45.67;;;30.07;;
11655;SDS011;5884;43.618;1.438;2022-12-07T18:48:50;51.87;;;30.50;;
11655;SDS011;5884;43.618;1.438;2022-12-07T18:51:18;42.33;;;29.10;;
11655;SDS011;5884;43.618;1.438;2022-12-07T18:53:45;49.40;;;30.07;;
11655;SDS011;5884;43.618;1.438;2022-12-07T18:56:15;42.20;;;29.53;;
11655;SDS011;5884;43.618;1.438;2022-12-07T18:58:47;49.50;;;33.00;;
11655;SDS011;5884;43.618;1.438;2022-12-07T19:01:34;48.13;;;32.50;;
11655;SDS011;5884;43.618;1.438;2022-12-07T19:04:01;50.53;;;35.47;;
11655;SDS011;5884;43.618;1.438;2022-12-07T19:06:29;49.73;;;35.23;;
11655;SDS011;5884;43.618;1.438;2022-12-07T19:08:57;51.03;;;36.20;;
11655;SDS011;5884;43.618;1.438;2022-12-07T19:11:26;50.90;;;36.10;;
11655;SDS011;5884;43.618;1.438;2022-12-07T19:14:15;52.37;;;36.77;;
11655;SDS011;5884;43.618;1.438;2022-12-07T19:16:46;60.23;;;39.33;;
11655;SDS011;5884;43.618;1.438;2022-12-07T19:19:15;50.67;;;37.60;;
11655;SDS011;5884;43.618;1.438;2022-12-07T19:21:44;58.17;;;38.33;;
11655;SDS011;5884;43.618;1.438;2022-12-07T19:24:12;72.50;;;50.13;;
11655;SDS011;5884;43.618;1.438;2022-12-07T19:26:41;117.87;;;78.70;;
11655;SDS011;5884;43.618;1.438;2022-12-07T19:29:08;124.63;;;80.57;;
11655;SDS011;5884;43.618;1.438;2022-12-07T19:31:35;101.40;;;66.37;;
11655;SDS011;5884;43.618;1.438;2022-12-07T19:34:06;81.27;;;55.43;;
11655;SDS011;5884;43.618;1.438;2022-12-07T19:36:34;83.23;;;52.83;;
11655;SDS011;5884;43.618;1.438;2022-12-07T19:39:02;74.90;;;50.40;;
11655;SDS011;5884;43.618;1.438;2022-12-07T19:41:29;78.80;;;50.63;;
11655;SDS011;5884;43.618;1.438;2022-12-07T19:44:02;80.50;;;52.47;;
11655;SDS011;5884;43.618;1.438;2022-12-07T19:46:32;80.43;;;52.67;;
11655;SDS011;5884;43.618;1.438;2022-12-07T19:49:00;78.03;;;51.87;;
11655;SDS011;5884;43.618;1.438;2022-12-07T19:51:28;75.27;;;50.20;;
11655;SDS011;5884;43.618;1.438;2022-12-07T19:53:56;79.20;;;48.73;;
11655;SDS011;5884;43.618;1.438;2022-12-07T19:56:25;68.30;;;45.93;;
11655;SDS011;5884;43.618;1.438;2022-12-07T19:58:55;67.23;;;43.73;;
11655;SDS011;5884;43.618;1.438;2022-12-07T20:01:27;64.87;;;42.73;;
11655;SDS011;5884;43.618;1.438;2022-12-07T20:03:55;66.23;;;42.47;;
11655;SDS011;5884;43.618;1.438;2022-12-07T20:06:23;67.70;;;43.00;;
11655;SDS011;5884;43.618;1.438;2022-12-07T20:08:51;59.90;;;40.40;;
11655;SDS011;5884;43.618;1.438;2022-12-07T20:11:19;61.53;;;40.83;;
11655;SDS011;5884;43.618;1.438;2022-12-07T20:14:04;61.40;;;40.57;;
11655;SDS011;5884;43.618;1.438;2022-12-07T20:16:34;60.33;;;40.27;;
11655;SDS011;5884;43.618;1.438;2022-12-07T20:19:02;64.30;;;42.63;;
11655;SDS011;5884;43.618;1.438;2022-12-07T20:21:30;63.63;;;40.60;;
11655;SDS011;5884;43.618;1.438;2022-12-07T20:23:58;66.67;;;43.27;;
11655;SDS011;5884;43.618;1.438;2022-12-07T20:26:26;70.90;;;45.27;;
11655;SDS011;5884;43.618;1.438;2022-12-07T20:28:54;66.83;;;44.80;;
11655;SDS011;5884;43.618;1.438;2022-12-07T20:31:22;79.37;;;47.73;;
11655;SDS011;5884;43.618;1.438;2022-12-07T20:33:50;83.40;;;52.23;;
11655;SDS011;5884;43.618;1.438;2022-12-07T20:36:18;78.83;;;50.37;;
11655;SDS011;5884;43.618;1.438;2022-12-07T20:38:45;80.23;;;51.90;;
11655;SDS011;5884;43.618;1.438;2022-12-07T20:41:13;81.03;;;54.27;;
11655;SDS011;5884;43.618;1.438;2022-12-07T20:43:58;85.43;;;54.93;;
11655;SDS011;5884;43.618;1.438;2022-12-07T20:46:26;83.07;;;54.27;;
11655;SDS011;5884;43.618;1.438;2022-12-07T20:48:56;79.17;;;53.27;;
11655;SDS011;5884;43.618;1.438;2022-12-07T20:51:23;80.80;;;53.07;;
11655;SDS011;5884;43.618;1.438;2022-12-07T20:53:51;79.90;;;52.33;;
11655;SDS011;5884;43.618;1.438;2022-12-07T20:56:19;78.33;;;51.73;;
11655;SDS011;5884;43.618;1.438;2022-12-07T20:58:48;78.63;;;51.63;;
11655;SDS011;5884;43.618;1.438;2022-12-07T21:01:15;74.37;;;52.03;;
11655;SDS011;5884;43.618;1.438;2022-12-07T21:03:42;77.23;;;50.33;;
11655;SDS011;5884;43.618;1.438;2022-12-07T21:06:13;72.13;;;49.53;;
11655;SDS011;5884;43.618;1.438;2022-12-07T21:08:44;77.27;;;51.83;;
11655;SDS011;5884;43.618;1.438;2022-12-07T21:11:14;73.50;;;49.87;;
11655;SDS011;5884;43.618;1.438;2022-12-07T21:13:43;77.23;;;51.40;;
11655;SDS011;5884;43.618;1.438;2022-12-07T21:16:12;79.67;;;51.10;;
11655;SDS011;5884;43.618;1.438;2022-12-07T21:18:41;72.03;;;50.73;;
11655;SDS011;5884;43.618;1.438;2022-12-07T21:21:10;82.17;;;53.80;;
11655;SDS011;5884;43.618;1.438;2022-12-07T21:23:41;80.73;;;51.47;;
11655;SDS011;5884;43.618;1.438;2022-12-07T21:26:09;75.43;;;49.47;;
11655;SDS011;5884;43.618;1.438;2022-12-07T21:28:36;75.90;;;50.50;;
11655;SDS011;5884;43.618;1.438;2022-12-07T21:31:04;74.80;;;48.97;;
11655;SDS011;5884;43.618;1.438;2022-12-07T21:33:32;77.93;;;50.53;;